CheckWX is a tool to help pilots better visualize weather data.  It is not intended as a substitute for an official pre-flight weather briefing.

21:44:07 UTC

KARR METAR
Aurora Municipal Airport
Chicago/Aurora, Illinois, USA
Current

52 mins ago

KARR 292052Z 31003KT 3SM BR FEW021 OVC031 M01/M03 A3016 RMK AO2 SLP220 60000 T10111033 55008
Observed
Jan-29 @ 20:52 UTC
Wind
  • 310° at 3 KTS
Visibility
3 SM
Flight Rules
MVFR
Conditions
Mist
Cloud Levels
  • Few at 2,100' AGL
  • Overcast at 3,100' AGL
Temperature
-1°C / 30°F
Dewpoint
-3°C / 27°F
Humidity
86%
Altimeter
30.16" Hg
Pressure
1021.32 hPa
Previous

2 hours ago

KARR 291952Z 00000KT 4SM BR OVC013 M01/M03 A3015 RMK AO2 SLP220 T10061028
Observed
Jan-29 @ 19:52 UTC
Visibility
4 SM
Flight Rules
MVFR
Conditions
Mist
Cloud Levels
  • Overcast at 1,300' AGL
Temperature
-1°C / 30°F
Dewpoint
-3°C / 27°F
Humidity
86%
Altimeter
30.15" Hg
Pressure
1021.02 hPa
Previous

2 hours ago

KARR 291919Z 00000KT 4SM HZ BKN013 OVC019 M01/M03 A3016 RMK AO2 T10061033
Observed
Jan-29 @ 19:19 UTC
Visibility
4 SM
Flight Rules
MVFR
Conditions
Haze
Cloud Levels
  • Broken at 1,300' AGL
  • Overcast at 1,900' AGL
Temperature
-1°C / 30°F
Dewpoint
-3°C / 27°F
Humidity
86%
Altimeter
30.16" Hg
Pressure
1021.32 hPa